createdAt,value
2023-03-12T00:01:42.294Z,76.98
2023-03-12T00:04:10.285Z,76.71
2023-03-12T00:06:37.810Z,76.61
2023-03-12T00:09:05.966Z,76.58
2023-03-12T00:11:33.501Z,76.70
2023-03-12T00:14:01.226Z,76.92
2023-03-12T00:16:28.867Z,77.09
2023-03-12T00:18:56.467Z,77.19
2023-03-12T00:21:23.976Z,77.30
2023-03-12T00:23:51.556Z,77.38
2023-03-12T00:26:19.039Z,77.58
2023-03-12T00:28:46.515Z,77.67
2023-03-12T00:31:14.500Z,77.60
2023-03-12T00:33:42.042Z,77.91
2023-03-12T00:36:12.188Z,78.14
2023-03-12T00:38:41.986Z,78.39
2023-03-12T00:41:09.522Z,78.52
2023-03-12T00:43:37.660Z,78.61
2023-03-12T00:46:05.310Z,78.40
2023-03-12T00:48:33.551Z,78.46
2023-03-12T00:51:01.170Z,78.43
2023-03-12T00:53:28.772Z,78.44
2023-03-12T00:55:56.350Z,78.32
2023-03-12T00:58:23.830Z,78.18
2023-03-12T01:00:51.428Z,78.10
2023-03-12T01:03:18.927Z,78.03
2023-03-12T01:05:46.442Z,78.13
2023-03-12T01:08:14.226Z,78.18
2023-03-12T01:10:41.825Z,78.17
2023-03-12T01:13:09.484Z,78.21
2023-03-12T01:15:38.296Z,78.14
2023-03-12T01:18:05.947Z,78.07
2023-03-12T01:20:33.438Z,78.10
2023-03-12T01:23:01.053Z,78.23
2023-03-12T01:25:28.698Z,78.17
2023-03-12T01:27:56.207Z,78.41
2023-03-12T01:30:24.555Z,78.56
2023-03-12T01:32:52.179Z,78.91
2023-03-12T01:35:19.909Z,79.13
2023-03-12T01:37:47.579Z,79.20
2023-03-12T01:40:15.065Z,79.15
2023-03-12T01:42:42.553Z,79.24
2023-03-12T01:45:10.304Z,79.38
2023-03-12T01:47:37.789Z,79.53
2023-03-12T01:50:05.975Z,79.74
2023-03-12T01:52:33.580Z,79.95
2023-03-12T01:55:01.067Z,80.16
2023-03-12T01:57:29.056Z,80.13
2023-03-12T01:59:56.645Z,79.88
2023-03-12T02:02:27.711Z,79.50
2023-03-12T02:04:55.282Z,79.23
2023-03-12T02:07:22.782Z,78.94
2023-03-12T02:09:50.437Z,78.66
2023-03-12T02:12:17.960Z,78.38
2023-03-12T02:14:45.574Z,77.86
2023-03-12T02:17:13.331Z,77.50
2023-03-12T02:19:40.989Z,77.28
2023-03-12T02:22:08.563Z,77.26
2023-03-12T02:24:36.314Z,77.19
2023-03-12T02:27:03.814Z,76.73
2023-03-12T02:29:31.432Z,76.24
2023-03-12T02:31:59.097Z,76.23
2023-03-12T02:34:26.682Z,75.98
2023-03-12T02:36:54.280Z,75.86
2023-03-12T02:39:21.855Z,76.26
2023-03-12T02:41:49.327Z,76.72
2023-03-12T02:44:16.907Z,76.55
2023-03-12T02:46:44.567Z,76.51
2023-03-12T02:49:13.478Z,76.56
2023-03-12T02:51:41.257Z,76.79
2023-03-12T02:54:09.346Z,77.17
2023-03-12T02:56:36.924Z,77.61
2023-03-12T02:59:04.632Z,77.86
2023-03-12T03:01:35.281Z,78.13
2023-03-12T03:04:02.825Z,78.11
2023-03-12T03:06:31.230Z,78.33
2023-03-12T03:08:58.864Z,78.40
2023-03-12T03:11:27.177Z,78.44
2023-03-12T03:13:55.277Z,78.42
2023-03-12T03:16:22.770Z,78.16
2023-03-12T03:18:50.375Z,78.07
2023-03-12T03:21:18.011Z,77.97
2023-03-12T03:23:45.674Z,77.87
2023-03-12T03:26:13.514Z,77.81
2023-03-12T03:31:08.991Z,77.80
2023-03-12T03:33:37.554Z,77.63
2023-03-12T03:36:05.484Z,77.68
2023-03-12T03:38:33.560Z,77.84
2023-03-12T03:41:01.256Z,77.97
2023-03-12T03:43:28.953Z,78.00
2023-03-12T03:45:56.474Z,78.08
2023-03-12T03:48:24.029Z,78.25
2023-03-12T03:50:51.625Z,78.40
2023-03-12T03:53:20.072Z,78.43
2023-03-12T03:55:47.853Z,78.50
2023-03-12T03:58:15.408Z,78.50
2023-03-12T04:00:42.927Z,78.50
2023-03-12T04:03:10.571Z,78.49
2023-03-12T04:05:38.290Z,78.47
2023-03-12T04:08:05.934Z,78.50
2023-03-12T04:10:33.516Z,78.50
2023-03-12T04:13:01.275Z,78.44
2023-03-12T04:15:33.754Z,78.37
2023-03-12T04:18:02.769Z,78.60
2023-03-12T04:20:31.036Z,78.62
2023-03-12T04:22:58.692Z,78.78
2023-03-12T04:25:26.509Z,78.94
2023-03-12T04:27:54.002Z,79.15
2023-03-12T04:30:21.740Z,79.31
2023-03-12T04:32:49.337Z,79.49
2023-03-12T04:35:16.854Z,79.78
2023-03-12T04:37:44.332Z,79.94
2023-03-12T04:40:12.416Z,79.97
2023-03-12T04:42:39.941Z,79.87
2023-03-12T04:45:07.522Z,79.82
2023-03-12T04:47:35.007Z,79.91
2023-03-12T04:50:03.500Z,80.00
2023-03-12T04:52:31.040Z,80.24
2023-03-12T04:54:59.825Z,80.37
2023-03-12T04:57:27.310Z,80.50
2023-03-12T04:59:55.280Z,80.55
2023-03-12T05:02:23.871Z,80.52
2023-03-12T05:04:51.630Z,80.40
2023-03-12T05:07:19.940Z,80.32
2023-03-12T05:09:47.759Z,80.19
2023-03-12T05:12:15.708Z,80.02
2023-03-12T05:14:43.296Z,79.75
2023-03-12T05:17:10.878Z,79.47
2023-03-12T05:19:38.390Z,79.51
2023-03-12T05:22:06.163Z,79.29
2023-03-12T05:24:33.715Z,79.15
2023-03-12T05:27:01.170Z,78.80
2023-03-12T05:29:29.793Z,78.63
2023-03-12T05:31:57.458Z,78.50
2023-03-12T05:34:25.138Z,78.58
2023-03-12T05:36:52.921Z,78.74
2023-03-12T05:39:20.605Z,78.78
2023-03-12T05:41:48.658Z,79.11
2023-03-12T05:44:17.800Z,79.42
2023-03-12T05:46:45.342Z,79.88
2023-03-12T05:49:12.862Z,80.19
2023-03-12T05:51:40.501Z,80.13
2023-03-12T05:54:08.128Z,80.11
2023-03-12T05:56:35.607Z,79.90
2023-03-12T05:59:03.146Z,79.90
2023-03-12T06:01:30.704Z,79.78
2023-03-12T06:03:58.238Z,79.76
2023-03-12T06:06:25.753Z,79.74
2023-03-12T06:08:53.339Z,79.76
2023-03-12T06:11:20.836Z,79.64
2023-03-12T06:13:48.475Z,79.45
2023-03-12T06:16:16.142Z,79.33
2023-03-12T06:18:43.946Z,79.02
2023-03-12T06:21:11.484Z,78.91
2023-03-12T06:23:39.840Z,78.74
2023-03-12T06:26:08.084Z,78.66
2023-03-12T06:28:35.584Z,78.70
2023-03-12T06:31:03.281Z,78.80
2023-03-12T06:33:30.764Z,78.80
2023-03-12T06:35:58.305Z,78.84
2023-03-12T06:38:25.984Z,78.80
2023-03-12T06:40:53.559Z,78.51
2023-03-12T06:43:21.585Z,78.26
2023-03-12T06:45:49.974Z,78.01
2023-03-12T06:48:17.518Z,78.18
2023-03-12T06:50:45.234Z,77.85
2023-03-12T06:53:12.984Z,77.18
2023-03-12T06:55:40.765Z,77.09
2023-03-12T06:58:09.149Z,76.96
2023-03-12T07:00:36.976Z,76.38
2023-03-12T07:03:04.773Z,75.64
2023-03-12T07:05:32.637Z,75.41
2023-03-12T07:08:00.603Z,74.93
2023-03-12T07:10:29.475Z,74.88
2023-03-12T07:12:57.961Z,74.04
2023-03-12T07:15:25.920Z,73.89
2023-03-12T07:17:53.511Z,74.31
2023-03-12T07:20:21.408Z,73.82
2023-03-12T07:22:49.315Z,72.83
2023-03-12T07:25:18.939Z,72.32
2023-03-12T07:27:46.810Z,72.22
2023-03-12T07:30:14.413Z,71.96
2023-03-12T07:32:42.266Z,71.57
2023-03-12T07:35:10.443Z,71.42
2023-03-12T07:37:38.538Z,70.79
2023-03-12T07:40:07.561Z,70.74
2023-03-12T07:42:35.367Z,70.43
2023-03-12T07:45:04.310Z,70.40
2023-03-12T07:47:35.269Z,70.74
2023-03-12T07:50:03.677Z,69.91
2023-03-12T07:52:31.603Z,68.78
2023-03-12T07:55:01.376Z,68.59
2023-03-12T07:57:29.214Z,68.98
2023-03-12T07:59:57.018Z,68.41
2023-03-12T08:02:25.200Z,68.31
2023-03-12T08:04:53.719Z,68.44
2023-03-12T08:07:21.605Z,68.06
2023-03-12T08:09:50.382Z,67.95
2023-03-12T08:12:18.601Z,67.60
2023-03-12T08:14:47.172Z,67.67
2023-03-12T08:17:15.260Z,67.76
2023-03-12T08:19:43.082Z,68.08
2023-03-12T08:22:10.818Z,66.72
2023-03-12T08:24:38.696Z,66.93
2023-03-12T08:27:06.385Z,66.47
2023-03-12T08:29:33.966Z,66.17
2023-03-12T08:32:04.929Z,66.40
2023-03-12T08:34:33.090Z,66.04
2023-03-12T08:37:01.805Z,66.42
2023-03-12T08:39:30.047Z,66.33
2023-03-12T08:41:58.657Z,66.52
2023-03-12T08:44:27.194Z,66.92
2023-03-12T08:46:56.107Z,66.87
2023-03-12T08:49:24.087Z,66.88
2023-03-12T08:51:51.990Z,67.26
2023-03-12T08:54:19.494Z,65.95
2023-03-12T08:56:47.389Z,65.19
2023-03-12T08:59:15.406Z,65.15
2023-03-12T09:01:44.022Z,65.35
2023-03-12T09:04:15.335Z,65.72
2023-03-12T09:06:43.269Z,66.10
2023-03-12T09:09:11.093Z,65.80
2023-03-12T09:11:42.634Z,66.12
2023-03-12T09:16:58.998Z,65.43
2023-03-12T09:19:27.027Z,65.66
2023-03-12T09:21:54.742Z,65.53
2023-03-12T09:24:22.853Z,64.88
2023-03-12T09:26:50.807Z,65.14
2023-03-12T09:29:19.313Z,65.06
2023-03-12T09:31:46.824Z,64.56
2023-03-12T09:34:15.201Z,63.82
2023-03-12T09:36:42.985Z,64.71
2023-03-12T09:39:10.762Z,64.66
2023-03-12T09:41:40.183Z,63.61
2023-03-12T09:44:08.194Z,63.24
2023-03-12T09:46:36.173Z,63.83
2023-03-12T09:49:04.834Z,62.34
2023-03-12T09:51:33.039Z,61.64
2023-03-12T09:54:00.980Z,61.82
2023-03-12T09:56:50.594Z,62.08
2023-03-12T09:59:18.472Z,61.78
2023-03-12T10:01:46.539Z,62.17
2023-03-12T10:04:14.810Z,61.27
2023-03-12T10:06:42.471Z,61.00
2023-03-12T10:09:09.988Z,59.27
2023-03-12T10:11:39.318Z,60.34
2023-03-12T10:14:07.001Z,61.18
2023-03-12T10:16:34.532Z,60.22
2023-03-12T10:19:02.465Z,60.17
2023-03-12T10:21:30.214Z,60.24
2023-03-12T10:23:57.904Z,61.53
2023-03-12T10:26:26.466Z,61.43
2023-03-12T10:28:54.163Z,60.04
2023-03-12T10:31:21.832Z,59.98
2023-03-12T10:33:54.024Z,61.32
2023-03-12T10:36:21.688Z,60.95
2023-03-12T10:38:49.526Z,60.78
2023-03-12T10:41:17.647Z,61.03
2023-03-12T10:43:45.442Z,60.53
2023-03-12T10:46:13.008Z,59.14
2023-03-12T10:48:40.576Z,59.55
2023-03-12T10:51:08.363Z,60.58
2023-03-12T10:53:36.028Z,60.42
2023-03-12T10:56:03.682Z,60.53
2023-03-12T10:58:31.328Z,59.13
2023-03-12T11:00:58.995Z,59.33
2023-03-12T11:03:27.121Z,59.26
2023-03-12T11:05:54.758Z,58.65
2023-03-12T11:08:23.743Z,58.98
2023-03-12T11:10:51.385Z,58.81
2023-03-12T11:13:18.920Z,58.45
2023-03-12T11:15:46.681Z,58.87
2023-03-12T11:18:14.272Z,59.39
2023-03-12T11:20:41.788Z,60.36
2023-03-12T11:23:12.030Z,60.03
2023-03-12T11:25:39.557Z,60.16
2023-03-12T11:28:07.141Z,60.15
2023-03-12T11:30:34.770Z,58.78
2023-03-12T11:33:02.416Z,59.01
2023-03-12T11:35:30.276Z,59.05
2023-03-12T11:37:57.793Z,59.38
2023-03-12T11:40:25.912Z,59.44
2023-03-12T11:42:53.481Z,58.25
2023-03-12T11:45:21.100Z,57.46
2023-03-12T11:47:49.044Z,58.16
2023-03-12T11:50:16.692Z,58.80
2023-03-12T11:52:44.394Z,58.26
2023-03-12T11:55:13.788Z,57.28
2023-03-12T11:57:42.639Z,57.86
2023-03-12T12:00:13.120Z,58.83
2023-03-12T12:02:40.639Z,58.26
2023-03-12T12:05:08.222Z,58.79
2023-03-12T12:07:35.732Z,57.98
2023-03-12T12:10:03.240Z,56.80
2023-03-12T12:12:30.858Z,56.15
2023-03-12T12:14:58.451Z,57.92
2023-03-12T12:17:26.365Z,58.19
2023-03-12T12:19:53.912Z,57.59
2023-03-12T12:22:21.608Z,57.21
2023-03-12T12:24:49.715Z,56.48
2023-03-12T12:27:17.898Z,55.65
2023-03-12T12:29:47.862Z,56.88
2023-03-12T12:32:17.125Z,55.93
2023-03-12T12:34:44.838Z,55.72
2023-03-12T12:37:12.430Z,55.57
2023-03-12T12:39:39.989Z,54.39
2023-03-12T12:42:07.664Z,54.34
2023-03-12T12:44:37.905Z,56.15
2023-03-12T12:47:05.569Z,56.34
2023-03-12T12:49:34.236Z,57.24
2023-03-12T12:52:01.935Z,56.75
2023-03-12T12:54:29.869Z,56.03
2023-03-12T12:56:57.407Z,53.78
2023-03-12T12:59:26.373Z,51.74
2023-03-12T13:01:53.929Z,51.65
2023-03-12T13:04:21.910Z,53.14
2023-03-12T13:06:49.764Z,53.04
2023-03-12T13:09:17.377Z,53.08
2023-03-12T13:11:45.127Z,53.34
2023-03-12T13:14:12.922Z,54.05
2023-03-12T13:16:42.866Z,53.81
2023-03-12T13:19:10.732Z,52.98
2023-03-12T13:21:38.338Z,53.67
2023-03-12T13:24:05.974Z,52.84
2023-03-12T13:26:33.800Z,52.58
2023-03-12T13:29:12.420Z,51.94
2023-03-12T13:31:40.658Z,52.07
2023-03-12T13:34:09.112Z,51.36
2023-03-12T13:36:36.861Z,50.69
2023-03-12T13:39:06.757Z,50.64
2023-03-12T13:41:34.316Z,50.97
2023-03-12T13:44:02.022Z,51.37
2023-03-12T13:46:30.942Z,51.67
2023-03-12T13:48:58.631Z,51.51
2023-03-12T13:51:26.868Z,51.61
2023-03-12T13:53:54.557Z,51.64
2023-03-12T13:56:22.433Z,51.68
2023-03-12T13:58:49.966Z,52.33
2023-03-12T14:01:17.533Z,51.37
2023-03-12T14:03:45.405Z,51.41
2023-03-12T14:06:12.925Z,51.08
2023-03-12T14:08:40.560Z,50.64
2023-03-12T14:11:08.459Z,51.23
2023-03-12T14:13:36.031Z,50.74
2023-03-12T14:16:03.864Z,50.34
2023-03-12T14:18:34.095Z,50.32
2023-03-12T14:21:01.661Z,50.57
2023-03-12T14:23:30.907Z,49.71
2023-03-12T14:26:00.394Z,50.41
2023-03-12T14:28:29.475Z,50.99
2023-03-12T14:30:57.141Z,51.54
2023-03-12T14:33:24.830Z,51.54
2023-03-12T14:35:52.402Z,51.40
2023-03-12T14:38:20.650Z,50.17
2023-03-12T14:40:48.305Z,50.61
2023-03-12T14:43:15.878Z,50.42
2023-03-12T14:45:43.575Z,51.39
2023-03-12T14:48:12.177Z,51.29
2023-03-12T14:50:40.339Z,51.52
2023-03-12T14:53:08.643Z,51.06
2023-03-12T14:55:36.794Z,51.74
2023-03-12T14:58:05.090Z,51.69
2023-03-12T15:00:33.076Z,52.35
2023-03-12T15:03:00.793Z,52.87
2023-03-12T15:05:28.374Z,53.01
2023-03-12T15:07:56.084Z,52.23
2023-03-12T15:10:23.709Z,53.00
2023-03-12T15:12:51.300Z,53.17
2023-03-12T15:15:18.952Z,52.06
2023-03-12T15:17:46.699Z,51.67
2023-03-12T15:20:14.298Z,52.67
2023-03-12T15:22:41.816Z,52.23
2023-03-12T15:25:09.642Z,52.88
2023-03-12T15:27:37.252Z,53.37
2023-03-12T15:30:04.809Z,53.60
2023-03-12T15:32:32.547Z,53.97
2023-03-12T15:35:00.995Z,54.24
2023-03-12T15:37:32.850Z,54.50
2023-03-12T15:40:01.360Z,54.39
2023-03-12T15:42:29.553Z,54.66
2023-03-12T15:44:57.419Z,54.75
2023-03-12T15:47:25.196Z,55.33
2023-03-12T15:49:53.315Z,55.34
2023-03-12T15:52:27.643Z,55.40
2023-03-12T15:54:55.372Z,55.65
2023-03-12T15:57:23.127Z,55.81
2023-03-12T15:59:51.000Z,56.02
2023-03-12T16:02:18.777Z,56.30
2023-03-12T16:04:46.786Z,56.36
2023-03-12T16:07:14.669Z,56.50
2023-03-12T16:09:42.723Z,56.76
2023-03-12T16:12:10.387Z,57.10
2023-03-12T16:14:38.091Z,57.60
2023-03-12T16:17:05.961Z,57.56
2023-03-12T16:19:34.315Z,57.61
2023-03-12T16:22:01.968Z,57.73
2023-03-12T16:24:29.720Z,58.02
2023-03-12T16:26:57.480Z,58.12
2023-03-12T16:29:25.234Z,58.29
2023-03-12T16:31:53.149Z,58.59
2023-03-12T16:34:23.873Z,58.68
2023-03-12T16:36:51.636Z,58.86
2023-03-12T16:39:19.578Z,58.94
2023-03-12T16:41:47.359Z,59.10
2023-03-12T16:44:15.300Z,59.23
2023-03-12T16:46:43.118Z,59.33
2023-03-12T16:49:11.081Z,59.06
2023-03-12T16:51:38.824Z,59.07
2023-03-12T16:54:11.821Z,59.23
2023-03-12T16:56:40.010Z,59.60
2023-03-12T16:59:08.023Z,59.73
2023-03-12T17:01:35.879Z,59.84
2023-03-12T17:04:05.116Z,59.75
2023-03-12T17:06:35.055Z,60.29
2023-03-12T17:09:03.172Z,60.53
2023-03-12T17:11:32.897Z,60.73
2023-03-12T17:14:00.968Z,61.00
2023-03-12T17:16:28.889Z,61.19
2023-03-12T17:18:56.961Z,61.23
2023-03-12T17:21:25.035Z,61.30
2023-03-12T17:23:52.959Z,61.46
2023-03-12T17:26:21.606Z,61.39
2023-03-12T17:28:49.331Z,61.42
2023-03-12T17:31:17.091Z,61.24
2023-03-12T17:33:45.816Z,61.09
2023-03-12T17:36:13.376Z,61.26
2023-03-12T17:38:41.033Z,61.15
2023-03-12T17:41:23.401Z,61.31
2023-03-12T17:43:53.291Z,61.17
2023-03-12T17:46:21.069Z,61.14
2023-03-12T17:48:49.208Z,61.10
2023-03-12T17:51:17.872Z,61.62
2023-03-12T17:53:45.524Z,61.43
2023-03-12T17:56:13.467Z,61.50
2023-03-12T17:58:41.256Z,61.36
2023-03-12T18:01:08.954Z,61.12
2023-03-12T18:03:36.913Z,61.19
2023-03-12T18:06:04.912Z,61.82
2023-03-12T18:08:38.372Z,62.13
2023-03-12T18:11:06.244Z,62.46
2023-03-12T18:13:33.822Z,62.23
2023-03-12T18:16:01.524Z,62.48
2023-03-12T18:18:29.291Z,62.50
2023-03-12T18:20:57.161Z,62.59
2023-03-12T18:23:25.589Z,62.65
2023-03-12T18:25:53.423Z,62.54
2023-03-12T18:28:22.616Z,62.16
2023-03-12T18:30:50.501Z,62.16
2023-03-12T18:33:18.080Z,61.97
2023-03-12T18:35:45.767Z,62.73
2023-03-12T18:38:13.672Z,62.67
2023-03-12T18:40:41.455Z,62.30
2023-03-12T18:43:09.137Z,62.38
2023-03-12T18:45:37.985Z,61.49
2023-03-12T18:48:05.868Z,61.16
2023-03-12T18:50:33.497Z,61.88
2023-03-12T18:53:01.231Z,62.31
2023-03-12T18:55:29.507Z,62.85
2023-03-12T18:57:57.137Z,63.36
2023-03-12T19:00:25.104Z,63.76
2023-03-12T19:02:53.377Z,63.95
2023-03-12T19:05:21.977Z,63.90
2023-03-12T19:07:49.774Z,62.91
2023-03-12T19:10:17.756Z,63.40
2023-03-12T19:12:53.568Z,64.12
2023-03-12T19:15:22.214Z,63.97
2023-03-12T19:17:51.891Z,64.29
2023-03-12T19:20:19.735Z,64.44
2023-03-12T19:22:50.066Z,64.23
2023-03-12T19:25:18.155Z,64.28
2023-03-12T19:27:45.864Z,64.13
2023-03-12T19:30:13.945Z,64.85
2023-03-12T19:32:44.287Z,65.03
2023-03-12T19:35:12.510Z,65.24
2023-03-12T19:37:40.285Z,65.20
2023-03-12T19:40:08.510Z,65.10
2023-03-12T19:42:37.552Z,65.14
2023-03-12T19:45:05.679Z,64.98
2023-03-12T19:47:33.563Z,65.05
2023-03-12T19:50:01.273Z,65.08
2023-03-12T19:52:29.558Z,66.03
2023-03-12T19:55:04.637Z,66.29
2023-03-12T19:57:34.051Z,66.29
2023-03-12T20:00:02.176Z,67.06
2023-03-12T20:02:30.075Z,68.10
2023-03-12T20:04:58.143Z,68.11
2023-03-12T20:07:25.934Z,68.44
2023-03-12T20:09:53.931Z,68.33
2023-03-12T20:12:21.743Z,68.43
2023-03-12T20:14:49.959Z,68.77
2023-03-12T20:17:19.129Z,69.08
2023-03-12T20:19:47.477Z,69.28
2023-03-12T20:22:15.229Z,69.34
2023-03-12T20:24:43.327Z,69.52
2023-03-12T20:27:13.471Z,69.66
2023-03-12T20:29:43.592Z,69.83
2023-03-12T20:32:11.651Z,69.57
2023-03-12T20:34:39.394Z,69.55
2023-03-12T20:37:07.095Z,69.65
2023-03-12T20:39:34.839Z,69.91
2023-03-12T20:42:02.550Z,69.98
2023-03-12T20:44:30.299Z,70.05
2023-03-12T20:46:57.965Z,70.49
2023-03-12T20:49:26.526Z,70.36
2023-03-12T20:51:54.344Z,70.53
2023-03-12T20:54:22.222Z,70.28
2023-03-12T20:56:50.325Z,70.65
2023-03-12T20:59:17.921Z,70.33
2023-03-12T21:01:48.118Z,69.72
2023-03-12T21:04:15.840Z,68.76
2023-03-12T21:06:44.918Z,69.12
2023-03-12T21:09:12.630Z,67.98
2023-03-12T21:11:40.353Z,67.24
2023-03-12T21:14:07.967Z,68.35
2023-03-12T21:16:35.599Z,68.62
2023-03-12T21:19:04.442Z,66.91
2023-03-12T21:21:32.248Z,64.81
2023-03-12T21:23:59.869Z,62.33
2023-03-12T21:26:27.622Z,60.05
2023-03-12T21:28:55.171Z,59.46
2023-03-12T21:31:23.580Z,58.80
2023-03-12T21:33:51.450Z,58.57
2023-03-12T21:36:18.956Z,59.17
2023-03-12T21:38:47.596Z,58.55
2023-03-12T21:41:15.265Z,59.77
2023-03-12T21:43:42.888Z,60.17
2023-03-12T21:46:10.463Z,60.50
2023-03-12T21:48:41.609Z,60.66
2023-03-12T21:51:09.451Z,60.36
2023-03-12T21:53:37.252Z,60.39
2023-03-12T21:56:04.900Z,60.93
2023-03-12T21:58:32.443Z,61.88
2023-03-12T22:01:02.406Z,63.12
2023-03-12T22:03:29.986Z,64.44
2023-03-12T22:05:57.464Z,63.73
2023-03-12T22:08:25.025Z,64.22
2023-03-12T22:10:52.602Z,64.04
2023-03-12T22:13:20.096Z,63.42
2023-03-12T22:15:47.728Z,64.12
2023-03-12T22:18:15.684Z,64.28
2023-03-12T22:20:43.276Z,65.12
2023-03-12T22:23:11.684Z,64.88
2023-03-12T22:25:39.296Z,64.29
2023-03-12T22:28:07.049Z,63.68
2023-03-12T22:30:34.884Z,64.16
2023-03-12T22:33:02.500Z,64.70
2023-03-12T22:35:30.119Z,64.91
2023-03-12T22:37:57.666Z,64.89
2023-03-12T22:40:25.363Z,64.75
2023-03-12T22:42:52.889Z,64.64
2023-03-12T22:45:20.397Z,64.52
2023-03-12T22:47:48.096Z,64.40
2023-03-12T22:50:15.879Z,64.19
2023-03-12T22:52:43.583Z,64.10
2023-03-12T22:55:11.361Z,63.49
2023-03-12T22:57:39.015Z,63.34
2023-03-12T23:00:07.082Z,63.31
2023-03-12T23:02:35.389Z,63.37
2023-03-12T23:05:03.068Z,63.41
2023-03-12T23:07:30.915Z,63.66
2023-03-12T23:09:58.552Z,63.50
2023-03-12T23:12:26.291Z,63.71
2023-03-12T23:14:53.765Z,63.67
2023-03-12T23:17:21.549Z,63.74
2023-03-12T23:19:49.286Z,63.66
2023-03-12T23:22:16.852Z,63.72
2023-03-12T23:24:45.065Z,64.06
2023-03-12T23:27:12.576Z,64.32
2023-03-12T23:29:40.211Z,64.23
2023-03-12T23:32:07.935Z,64.52
2023-03-12T23:34:35.475Z,64.52
2023-03-12T23:37:03.730Z,64.49
2023-03-12T23:39:32.704Z,64.58
2023-03-12T23:42:00.367Z,64.49
2023-03-12T23:44:27.944Z,64.74
2023-03-12T23:46:57.648Z,64.83
2023-03-12T23:49:25.257Z,64.90
2023-03-12T23:51:52.828Z,64.71
2023-03-12T23:54:20.681Z,64.63
2023-03-12T23:56:48.793Z,64.67
2023-03-12T23:59:16.302Z,64.92
